Terminal Aerodrome Forecast
Issued by NWS Memphis, TN

Home | Current Version | Previous Version | Text Only | Print | Product List | Glossary On
Versions: 1 2 3 4 5 6 7 8 9 10 11 12 13 14 15 16 17 18 19 20 21 22 23 24 25 26 27 28 29 30 31 32 33 34
000
FTUS44 KMEG 011803 AAA
TAFMEM
TAF AMD
KMEM 011803Z 0118/0218 22010KT P6SM BKN025 BKN150
     FM012000 22010KT P6SM VCTS SCT030 BKN040CB
      TEMPO 0121/0124 5SM SHRA BKN030
     FM020100 20010KT P6SM VCSH SCT040 BKN150
     FM021100 21010KT P6SM VCTS SCT040CB OVC100
      TEMPO 0211/0215 VRB10G20KT 3SM TSRA BKN040CB=

USA.gov is the U.S. government's official web portal to all federal, state and local government web resources and services.